createdAt,value
2022-08-24T00:02:05.955Z,38.30
2022-08-24T00:05:12.779Z,38.40
2022-08-24T00:08:17.831Z,38.40
2022-08-24T00:11:20.382Z,38.50
2022-08-24T00:14:22.462Z,38.70
2022-08-24T00:17:25.235Z,38.50
2022-08-24T00:20:29.685Z,38.40
2022-08-24T00:23:32.173Z,38.60
2022-08-24T00:26:35.538Z,38.90
2022-08-24T00:29:38.309Z,38.80
2022-08-24T00:32:40.358Z,38.80
2022-08-24T00:35:42.582Z,38.70
2022-08-24T00:38:44.547Z,38.60
2022-08-24T00:41:50.097Z,38.20
2022-08-24T00:44:52.224Z,38.20
2022-08-24T00:48:01.056Z,38.20
2022-08-24T00:51:10.538Z,38.00
2022-08-24T00:54:17.479Z,38.20
2022-08-24T00:57:22.715Z,38.20
2022-08-24T01:00:32.181Z,38.10
2022-08-24T01:03:36.140Z,38.20
2022-08-24T01:06:38.741Z,37.90
2022-08-24T01:09:40.869Z,37.80
2022-08-24T01:12:52.279Z,38.10
2022-08-24T01:16:07.417Z,38.00
2022-08-24T01:19:21.669Z,38.00
2022-08-24T01:22:53.393Z,37.90
2022-08-24T01:25:56.191Z,37.60
2022-08-24T01:29:12.352Z,38.00
2022-08-24T01:32:14.819Z,37.70
2022-08-24T01:35:17.039Z,37.50
2022-08-24T01:38:19.244Z,37.50
2022-08-24T01:41:22.454Z,37.60
2022-08-24T01:44:30.014Z,37.50
2022-08-24T01:47:31.983Z,37.40
2022-08-24T01:50:34.976Z,37.40
2022-08-24T01:53:37.247Z,37.50
2022-08-24T01:56:39.650Z,37.70
2022-08-24T01:59:41.817Z,37.80
2022-08-24T02:02:45.492Z,37.50
2022-08-24T02:05:48.388Z,37.40
2022-08-24T02:08:50.525Z,37.40
2022-08-24T02:11:52.727Z,37.80
2022-08-24T02:14:54.893Z,37.30
2022-08-24T02:17:57.518Z,37.60
2022-08-24T02:21:01.175Z,37.80
2022-08-24T02:24:03.792Z,37.50
2022-08-24T02:27:07.036Z,37.80
2022-08-24T02:30:09.728Z,37.80
2022-08-24T02:33:12.951Z,37.70
2022-08-24T02:36:25.466Z,37.40
2022-08-24T02:39:28.565Z,37.40
2022-08-24T02:42:30.724Z,37.40
2022-08-24T02:45:33.596Z,37.70
2022-08-24T02:48:35.682Z,37.90
2022-08-24T02:51:44.100Z,37.70
2022-08-24T02:54:47.211Z,37.70
2022-08-24T02:57:50.531Z,37.60
2022-08-24T03:00:52.490Z,37.80
2022-08-24T03:03:55.257Z,37.40
2022-08-24T03:06:57.338Z,37.20
2022-08-24T03:09:59.672Z,37.40
2022-08-24T03:13:03.101Z,37.40
2022-08-24T03:16:06.346Z,37.40
2022-08-24T03:19:08.426Z,37.80
2022-08-24T03:22:10.574Z,37.80
2022-08-24T03:25:14.495Z,37.90
2022-08-24T03:28:17.592Z,37.80
2022-08-24T03:31:20.635Z,37.50
2022-08-24T03:34:22.819Z,37.40
2022-08-24T03:37:25.464Z,37.50
2022-08-24T03:40:28.381Z,37.00
2022-08-24T03:43:49.017Z,37.50
2022-08-24T03:46:52.716Z,37.60
2022-08-24T03:49:56.261Z,37.50
2022-08-24T03:52:59.046Z,37.50
2022-08-24T03:56:01.083Z,37.60
2022-08-24T03:59:11.062Z,37.60
2022-08-24T04:02:13.165Z,37.60
2022-08-24T04:05:16.961Z,37.50
2022-08-24T04:08:19.343Z,37.70
2022-08-24T04:11:25.693Z,37.60
2022-08-24T04:14:28.057Z,37.80
2022-08-24T04:17:30.418Z,37.90
2022-08-24T04:20:37.036Z,38.20
2022-08-24T04:23:47.185Z,38.20
2022-08-24T04:26:49.999Z,38.20
2022-08-24T04:29:53.121Z,38.20
2022-08-24T04:32:55.380Z,38.20
2022-08-24T04:35:58.436Z,38.20
2022-08-24T04:39:01.165Z,38.30
2022-08-24T04:42:03.951Z,38.30
2022-08-24T04:45:06.236Z,38.30
2022-08-24T04:48:08.685Z,38.30
2022-08-24T04:51:18.039Z,38.30
2022-08-24T04:54:20.447Z,38.20
2022-08-24T04:57:23.434Z,38.20
2022-08-24T05:00:26.022Z,38.60
2022-08-24T05:03:28.517Z,38.40
2022-08-24T05:06:32.984Z,38.40
2022-08-24T05:09:34.996Z,38.70
2022-08-24T05:12:42.792Z,38.90
2022-08-24T05:15:47.546Z,39.40
2022-08-24T05:18:50.424Z,39.60
2022-08-24T05:21:52.712Z,39.60
2022-08-24T05:24:54.920Z,39.60
2022-08-24T05:27:58.231Z,39.70
2022-08-24T05:31:11.986Z,39.50
2022-08-24T05:34:14.659Z,39.70
2022-08-24T05:37:16.887Z,39.80
2022-08-24T05:40:20.353Z,39.80
2022-08-24T05:43:22.825Z,40.10
2022-08-24T05:46:24.826Z,40.00
2022-08-24T05:49:27.789Z,39.80
2022-08-24T05:52:30.981Z,40.00
2022-08-24T05:55:33.225Z,39.80
2022-08-24T05:58:36.218Z,40.00
2022-08-24T06:01:43.354Z,39.90
2022-08-24T06:04:47.176Z,40.00
2022-08-24T06:07:49.931Z,40.00
2022-08-24T06:10:52.171Z,39.70
2022-08-24T06:13:59.226Z,39.70
2022-08-24T06:17:03.784Z,39.30
2022-08-24T06:20:07.421Z,39.00
2022-08-24T06:23:10.469Z,38.70
2022-08-24T06:26:32.117Z,38.40
2022-08-24T06:29:34.499Z,38.20
2022-08-24T06:32:37.579Z,38.30
2022-08-24T06:35:43.555Z,37.90
2022-08-24T06:38:48.607Z,38.10
2022-08-24T06:41:50.566Z,38.10
2022-08-24T06:44:52.920Z,37.80
2022-08-24T06:47:55.768Z,38.00
2022-08-24T06:50:58.696Z,37.50
2022-08-24T06:54:00.863Z,37.40
2022-08-24T06:57:03.212Z,37.20
2022-08-24T07:00:06.704Z,37.30
2022-08-24T07:03:08.986Z,37.40
2022-08-24T07:06:12.711Z,37.70
2022-08-24T07:09:14.845Z,38.20
2022-08-24T07:12:17.153Z,38.20
2022-08-24T07:15:20.051Z,38.50
2022-08-24T07:18:22.085Z,38.60
2022-08-24T07:21:26.811Z,38.80
2022-08-24T07:24:28.791Z,38.90
2022-08-24T07:27:31.393Z,38.90
2022-08-24T07:30:33.432Z,39.00
2022-08-24T07:33:36.181Z,39.60
2022-08-24T07:36:44.256Z,39.60
2022-08-24T07:39:47.037Z,39.70
2022-08-24T07:42:50.741Z,39.90
2022-08-24T07:45:52.997Z,40.20
2022-08-24T07:49:05.036Z,40.80
2022-08-24T07:52:15.283Z,41.50
2022-08-24T07:55:17.302Z,41.80
2022-08-24T07:58:19.825Z,41.30
2022-08-24T08:01:22.584Z,41.40
2022-08-24T08:04:26.010Z,41.50
2022-08-24T08:07:27.992Z,41.90
2022-08-24T08:10:35.874Z,42.00
2022-08-24T08:16:41.898Z,43.40
2022-08-24T08:19:43.900Z,43.50
2022-08-24T08:23:04.714Z,43.60
2022-08-24T08:26:08.465Z,43.70
2022-08-24T08:29:13.366Z,43.60
2022-08-24T08:32:17.329Z,43.10
2022-08-24T08:35:19.612Z,42.50
2022-08-24T08:38:21.636Z,42.10
2022-08-24T08:42:02.048Z,41.90
2022-08-24T08:45:26.292Z,41.50
2022-08-24T08:48:54.744Z,41.00
2022-08-24T08:52:27.333Z,40.60
2022-08-24T08:55:38.680Z,40.50
2022-08-24T08:59:33.939Z,40.60
2022-08-24T09:03:07.261Z,40.70
2022-08-24T09:06:33.573Z,40.60
2022-08-24T09:09:55.971Z,40.80
2022-08-24T09:13:31.823Z,41.00
2022-08-24T09:17:07.539Z,41.10
2022-08-24T09:20:22.189Z,40.90
2022-08-24T09:23:42.996Z,40.90
2022-08-24T09:27:17.411Z,41.00
2022-08-24T09:30:32.876Z,41.10
2022-08-24T09:34:01.932Z,40.70
2022-08-24T09:37:34.675Z,40.50
2022-08-24T09:40:46.060Z,40.80
2022-08-24T09:44:27.752Z,40.90
2022-08-24T09:48:15.812Z,41.10
2022-08-24T09:51:49.946Z,41.50
2022-08-24T09:55:16.290Z,41.60
2022-08-24T09:58:27.102Z,41.50
2022-08-24T10:01:51.327Z,40.90
2022-08-24T10:05:09.901Z,41.10
2022-08-24T10:08:45.857Z,41.40
2022-08-24T10:12:18.222Z,42.00
2022-08-24T10:15:28.208Z,42.30
2022-08-24T10:18:56.229Z,42.30
2022-08-24T10:22:16.810Z,42.50
2022-08-24T10:25:21.487Z,42.70
2022-08-24T10:28:54.583Z,42.80
2022-08-24T10:32:23.923Z,43.00
2022-08-24T10:35:54.454Z,42.90
2022-08-24T10:39:43.345Z,42.90
2022-08-24T10:43:28.269Z,42.90
2022-08-24T10:46:44.784Z,42.90
2022-08-24T10:50:19.148Z,43.00
2022-08-24T10:53:23.846Z,43.50
2022-08-24T10:57:00.669Z,43.30
2022-08-24T11:00:07.101Z,43.00
2022-08-24T11:03:16.182Z,42.70
2022-08-24T11:06:20.140Z,42.50
2022-08-24T11:09:22.066Z,42.40
2022-08-24T11:12:29.734Z,42.30
2022-08-24T11:15:31.700Z,42.10
2022-08-24T11:18:50.099Z,42.40
2022-08-24T11:21:54.669Z,42.50
2022-08-24T11:25:04.984Z,42.40
2022-08-24T11:28:25.597Z,42.10
2022-08-24T11:31:40.527Z,42.10
2022-08-24T11:34:46.874Z,42.20
2022-08-24T11:37:51.547Z,42.10
2022-08-24T11:41:08.830Z,42.10
2022-08-24T11:44:41.283Z,42.20
2022-08-24T11:48:12.418Z,42.10
2022-08-24T11:51:37.275Z,42.10
2022-08-24T11:54:50.977Z,42.30
2022-08-24T11:58:23.519Z,42.20
2022-08-24T12:01:28.175Z,42.10
2022-08-24T12:04:55.196Z,42.00
2022-08-24T12:08:09.859Z,42.00
2022-08-24T12:11:28.112Z,42.10
2022-08-24T12:14:46.294Z,42.10
2022-08-24T12:18:08.284Z,42.60
2022-08-24T12:21:19.740Z,42.70
2022-08-24T12:24:38.977Z,42.90
2022-08-24T12:27:41.450Z,43.40
2022-08-24T12:30:45.508Z,43.30
2022-08-24T12:33:53.207Z,43.50
2022-08-24T12:37:19.677Z,43.10
2022-08-24T12:40:44.808Z,42.90
2022-08-24T12:43:55.412Z,42.20
2022-08-24T12:46:57.589Z,42.20
2022-08-24T12:50:10.004Z,42.00
2022-08-24T12:53:33.159Z,41.70
2022-08-24T12:57:07.339Z,41.40
2022-08-24T13:00:27.096Z,41.20
2022-08-24T13:03:46.001Z,41.30
2022-08-24T13:06:59.916Z,41.90
2022-08-24T13:10:06.574Z,41.90
2022-08-24T13:13:16.502Z,41.90
2022-08-24T13:16:56.368Z,41.60
2022-08-24T13:20:20.231Z,41.40
2022-08-24T13:23:24.318Z,41.60
2022-08-24T13:26:27.694Z,41.70
2022-08-24T13:29:34.762Z,41.80
2022-08-24T13:32:47.881Z,41.80
2022-08-24T13:35:58.060Z,41.90
2022-08-24T13:38:59.915Z,42.10
2022-08-24T13:42:10.889Z,42.10
2022-08-24T13:45:25.374Z,42.30
2022-08-24T13:48:42.532Z,42.60
2022-08-24T13:51:52.027Z,42.10
2022-08-24T13:55:16.326Z,42.10
2022-08-24T13:58:36.838Z,41.90
2022-08-24T14:01:57.593Z,42.10
2022-08-24T14:05:23.524Z,42.10
2022-08-24T14:08:50.403Z,42.10
2022-08-24T14:12:24.120Z,42.40
2022-08-24T14:16:10.796Z,42.80
2022-08-24T14:19:37.598Z,42.80
2022-08-24T14:23:09.087Z,43.20
2022-08-24T14:26:41.602Z,43.20
2022-08-24T14:29:46.635Z,43.00
2022-08-24T14:33:00.432Z,42.90
2022-08-24T14:36:31.168Z,42.90
2022-08-24T14:39:41.087Z,42.90
2022-08-24T14:42:46.038Z,42.70
2022-08-24T14:46:24.979Z,42.80
2022-08-24T14:49:41.634Z,42.60
2022-08-24T14:53:19.879Z,42.40
2022-08-24T14:56:37.140Z,42.50
2022-08-24T15:00:10.937Z,42.30
2022-08-24T15:03:43.399Z,42.10
2022-08-24T15:06:48.203Z,42.40
2022-08-24T15:09:51.356Z,42.30
2022-08-24T15:13:03.353Z,42.40
2022-08-24T15:16:24.425Z,42.60
2022-08-24T15:19:42.504Z,42.30
2022-08-24T15:22:59.746Z,42.30
2022-08-24T15:26:11.942Z,42.40
2022-08-24T15:29:21.364Z,42.30
2022-08-24T15:32:40.505Z,42.10
2022-08-24T15:35:48.832Z,42.20
2022-08-24T15:38:51.068Z,42.20
2022-08-24T15:41:54.130Z,42.10
2022-08-24T15:44:59.942Z,42.00
2022-08-24T15:48:05.173Z,41.90
2022-08-24T15:51:07.329Z,41.70
2022-08-24T15:54:33.597Z,41.50
2022-08-24T15:57:42.863Z,41.50
2022-08-24T16:01:03.539Z,41.50
2022-08-24T16:04:17.305Z,41.90
2022-08-24T16:07:25.768Z,41.90
2022-08-24T16:10:31.851Z,41.70
2022-08-24T16:13:34.098Z,41.50
2022-08-24T16:16:39.479Z,41.20
2022-08-24T16:19:48.527Z,40.80
2022-08-24T16:23:00.244Z,40.70
2022-08-24T16:26:47.629Z,40.80
2022-08-24T16:29:53.824Z,40.60
2022-08-24T16:32:57.732Z,40.40
2022-08-24T16:36:06.099Z,40.40
2022-08-24T16:39:11.491Z,40.30
2022-08-24T16:42:21.993Z,40.40
2022-08-24T16:45:24.230Z,40.30
2022-08-24T16:48:26.518Z,40.00
2022-08-24T16:51:28.819Z,40.40
2022-08-24T16:54:31.589Z,40.60
2022-08-24T16:57:37.707Z,40.60
2022-08-24T17:00:40.802Z,40.70
2022-08-24T17:03:43.089Z,40.80
2022-08-24T17:06:49.814Z,40.70
2022-08-24T17:09:54.442Z,40.80
2022-08-24T17:12:58.236Z,40.90
2022-08-24T17:16:02.184Z,41.10
2022-08-24T17:19:10.895Z,41.00
2022-08-24T17:22:16.557Z,41.20
2022-08-24T17:25:18.708Z,41.30
2022-08-24T17:28:20.909Z,40.90
2022-08-24T17:31:25.078Z,40.80
2022-08-24T17:34:30.318Z,40.90
2022-08-24T17:37:32.790Z,41.10
2022-08-24T17:40:35.592Z,41.10
2022-08-24T17:43:37.624Z,41.40
2022-08-24T17:46:40.545Z,41.10
2022-08-24T17:49:42.456Z,41.20
2022-08-24T17:52:44.662Z,41.30
2022-08-24T17:55:46.966Z,41.30
2022-08-24T17:59:08.036Z,41.20
2022-08-24T18:02:13.376Z,41.00
2022-08-24T18:05:16.064Z,40.90
2022-08-24T18:08:18.125Z,40.80
2022-08-24T18:11:25.249Z,40.80
2022-08-24T18:14:29.492Z,40.90
2022-08-24T18:17:39.411Z,40.90
2022-08-24T18:20:42.789Z,40.70
2022-08-24T18:23:44.954Z,40.70
2022-08-24T18:26:48.965Z,40.60
2022-08-24T18:29:55.046Z,40.60
2022-08-24T18:33:01.783Z,40.50
2022-08-24T18:36:04.198Z,40.60
2022-08-24T18:39:07.296Z,40.50
2022-08-24T18:42:11.869Z,40.40
2022-08-24T18:45:14.465Z,40.40
2022-08-24T18:48:16.605Z,40.30
2022-08-24T18:51:20.404Z,40.30
2022-08-24T18:54:26.434Z,40.30
2022-08-24T18:57:28.789Z,40.20
2022-08-24T19:00:31.254Z,40.40
2022-08-24T19:03:33.896Z,40.30
2022-08-24T19:06:35.976Z,40.10
2022-08-24T19:09:38.231Z,40.10
2022-08-24T19:13:06.093Z,40.00
2022-08-24T19:16:08.226Z,40.00
2022-08-24T19:19:12.403Z,40.10
2022-08-24T19:22:15.612Z,40.10
2022-08-24T19:25:25.066Z,40.00
2022-08-24T19:28:28.174Z,40.00
2022-08-24T19:31:33.943Z,39.90
2022-08-24T19:34:36.854Z,39.90
2022-08-24T19:37:40.463Z,39.90
2022-08-24T19:40:47.680Z,39.90
2022-08-24T19:44:12.490Z,39.90
2022-08-24T19:47:29.247Z,39.90
2022-08-24T19:50:35.547Z,40.10
2022-08-24T19:53:39.238Z,40.10
2022-08-24T19:56:41.444Z,39.90
2022-08-24T19:59:45.174Z,39.80
2022-08-24T20:02:49.415Z,39.80
2022-08-24T20:05:51.459Z,39.80
2022-08-24T20:08:56.839Z,39.80
2022-08-24T20:11:58.828Z,39.80
2022-08-24T20:15:01.014Z,39.80
2022-08-24T20:18:03.222Z,39.80
2022-08-24T20:21:06.560Z,39.70
2022-08-24T20:24:08.849Z,39.70
2022-08-24T20:27:19.077Z,39.80
2022-08-24T20:30:21.611Z,39.70
2022-08-24T20:33:24.805Z,39.60
2022-08-24T20:36:38.641Z,39.60
2022-08-24T20:39:40.893Z,39.60
2022-08-24T20:42:42.900Z,39.60
2022-08-24T20:45:45.543Z,39.60
2022-08-24T20:48:55.342Z,39.50
2022-08-24T20:52:00.236Z,39.50
2022-08-24T20:55:04.950Z,39.50
2022-08-24T20:58:08.343Z,39.40
2022-08-24T21:01:10.376Z,39.30
2022-08-24T21:04:12.638Z,39.30
2022-08-24T21:07:14.643Z,39.30
2022-08-24T21:10:19.610Z,39.30
2022-08-24T21:13:21.895Z,39.30
2022-08-24T21:16:24.060Z,39.30
2022-08-24T21:19:26.029Z,39.30
2022-08-24T21:22:28.199Z,39.20
2022-08-24T21:25:31.234Z,39.20
2022-08-24T21:28:35.042Z,39.20
2022-08-24T21:31:38.039Z,39.20
2022-08-24T21:34:40.297Z,39.20
2022-08-24T21:37:42.459Z,39.20
2022-08-24T21:40:44.799Z,39.20
2022-08-24T21:43:46.746Z,39.10
2022-08-24T21:46:49.968Z,39.10
2022-08-24T21:49:51.933Z,39.10
2022-08-24T21:52:54.158Z,39.10
2022-08-24T21:55:56.925Z,39.10
2022-08-24T21:58:59.297Z,39.00
2022-08-24T22:02:01.893Z,39.00
2022-08-24T22:05:04.645Z,39.00
2022-08-24T22:08:07.689Z,38.90
2022-08-24T22:11:12.092Z,38.80
2022-08-24T22:14:16.717Z,38.90
2022-08-24T22:17:18.849Z,38.80
2022-08-24T22:20:23.233Z,38.80
2022-08-24T22:23:25.681Z,38.50
2022-08-24T22:26:29.005Z,38.80
2022-08-24T22:29:32.309Z,38.70
2022-08-24T22:32:34.258Z,38.60
2022-08-24T22:35:44.758Z,38.50
2022-08-24T22:38:47.612Z,38.30
2022-08-24T22:41:49.715Z,38.10
2022-08-24T22:44:51.661Z,38.10
2022-08-24T22:47:54.099Z,38.10
2022-08-24T22:50:56.016Z,38.10
2022-08-24T22:53:58.216Z,38.20
2022-08-24T22:57:01.178Z,38.10
2022-08-24T23:00:04.922Z,38.20
2022-08-24T23:03:06.909Z,38.20
2022-08-24T23:06:09.069Z,38.40
2022-08-24T23:09:11.676Z,38.40
2022-08-24T23:12:18.981Z,38.30
2022-08-24T23:15:21.008Z,38.30
2022-08-24T23:18:41.790Z,38.10
2022-08-24T23:21:43.908Z,38.40
2022-08-24T23:24:47.402Z,38.40
2022-08-24T23:27:50.209Z,38.30
2022-08-24T23:30:52.486Z,38.20
2022-08-24T23:33:54.493Z,38.30
2022-08-24T23:36:56.800Z,38.30
2022-08-24T23:39:59.092Z,38.30
2022-08-24T23:43:01.299Z,38.50
2022-08-24T23:46:04.100Z,38.40
2022-08-24T23:49:06.611Z,38.00
2022-08-24T23:52:08.956Z,38.00
2022-08-24T23:55:28.628Z,38.10
2022-08-24T23:58:30.667Z,38.30
